Time;durP1;ratioP1;P1;durP2;ratioP2;P2;SDS_P1;SDS_P2;PMS_P1;PMS_P2;Temp;Humidity;BMP_temperature;BMP_pressure;BME280_temperature;BME280_humidity;BME280_pressure;Samples;Min_cycle;Max_cycle;Signal;HPM_P1;HPM_P2
2023/07/10 00:01:13;;;;;;;7.13;2.40;;;;;;;-143.84;39.33;45020.50;5069124;28;20588;-58
2023/07/10 00:03:41;;;;;;;3.30;2.60;;;;;;;-143.84;39.60;44988.13;5069252;28;20554;-57
2023/07/10 00:06:11;;;;;;;5.10;3.30;;;;;;;-143.84;39.40;44993.84;5069288;28;20445;-57
2023/07/10 00:08:40;;;;;;;12.47;3.20;;;;;;;-143.84;39.53;44984.31;5069082;28;20446;-57
2023/07/10 00:11:14;;;;;;;8.50;3.13;;;;;;;-143.84;39.72;45010.97;5069165;28;20484;-57
2023/07/10 00:13:41;;;;;;;5.83;2.70;;;;;;;-143.84;39.74;44993.84;5069232;28;20816;-57
2023/07/10 00:16:14;;;;;;;4.50;2.60;;;;;;;-143.84;39.74;45007.19;5069089;28;20446;-57
2023/07/10 00:18:41;;;;;;;3.17;2.30;;;;;;;-143.84;39.60;44995.75;5068948;28;20446;-57
2023/07/10 00:21:08;;;;;;;6.60;2.80;;;;;;;-143.84;39.74;44993.84;5068413;28;20438;-57
2023/07/10 00:23:35;;;;;;;6.20;3.50;;;;;;;-143.84;39.84;45018.59;5069160;28;20442;-57
2023/07/10 00:26:15;;;;;;;6.70;2.97;;;;;;;-143.84;39.93;45009.09;5069503;28;20793;-57
2023/07/10 00:28:42;;;;;;;5.23;3.13;;;;;;;-143.84;39.76;45022.41;5069030;28;20446;-57
2023/07/10 00:31:12;;;;;;;5.30;2.73;;;;;;;-143.84;39.76;45005.28;5068941;28;20856;-57
2023/07/10 00:33:40;;;;;;;4.37;2.70;;;;;;;-143.84;39.86;45005.28;5069127;28;20446;-57
2023/07/10 00:36:22;;;;;;;6.97;2.80;;;;;;;-143.84;40.09;45022.41;5069123;28;20445;-57
2023/07/10 00:38:49;;;;;;;5.27;2.80;;;;;;;-143.84;40.00;45005.28;5069162;28;20491;-58
2023/07/10 00:41:18;;;;;;;6.20;2.50;;;;;;;-143.84;39.88;44997.66;5068839;28;20425;-57
2023/07/10 00:43:48;;;;;;;8.20;2.50;;;;;;;-143.84;40.14;45009.09;5068685;28;20441;-57
2023/07/10 00:46:22;;;;;;;3.70;2.70;;;;;;;-143.84;40.14;45024.31;5068896;28;20426;-58
2023/07/10 00:48:55;;;;;;;4.13;3.03;;;;;;;-143.84;39.88;45016.69;5069187;28;20875;-58
2023/07/10 00:51:25;;;;;;;7.73;3.30;;;;;;;-143.84;40.08;45003.38;5068709;28;20530;-58
2023/07/10 00:53:54;;;;;;;9.80;2.80;;;;;;;-143.84;40.23;45026.22;5068993;28;20438;-58
2023/07/10 00:56:26;;;;;;;2.87;2.50;;;;;;;-143.84;40.20;45016.69;5068833;28;20502;-58
2023/07/10 00:58:53;;;;;;;4.50;2.27;;;;;;;-143.84;40.27;45005.28;5069234;28;20533;-57
2023/07/10 01:01:24;;;;;;;3.83;2.73;;;;;;;-143.84;40.07;45010.97;5069714;28;20950;-58
2023/07/10 01:03:53;;;;;;;6.50;3.17;;;;;;;-143.84;40.17;44991.94;5068543;28;20489;-58
2023/07/10 01:06:23;;;;;;;5.10;2.60;;;;;;;-143.84;39.98;45030.03;5068573;28;20445;-58
2023/07/10 01:08:54;;;;;;;5.03;2.50;;;;;;;-143.84;40.23;45001.47;5068637;28;20465;-58
2023/07/10 01:11:23;;;;;;;7.83;3.00;;;;;;;-143.84;40.26;45014.78;5068344;28;20477;-58
2023/07/10 01:13:53;;;;;;;5.07;2.67;;;;;;;-143.84;40.19;45009.09;5068985;28;20477;-58
2023/07/10 01:16:21;;;;;;;2.87;2.47;;;;;;;-143.84;40.06;44995.75;5069025;28;20457;-58
2023/07/10 01:18:49;;;;;;;7.23;2.70;;;;;;;-143.84;40.14;44991.94;5068912;28;20483;-58
2023/07/10 01:21:25;;;;;;;17.17;2.77;;;;;;;-143.84;40.20;45003.38;5068914;28;20964;-58
2023/07/10 01:23:54;;;;;;;8.80;4.07;;;;;;;-143.84;40.30;45007.19;5068982;28;20442;-58
2023/07/10 01:26:22;;;;;;;4.10;2.67;;;;;;;-143.84;40.43;45026.22;5069088;28;20512;-58
2023/07/10 01:28:49;;;;;;;4.67;2.30;;;;;;;-143.84;40.55;45010.97;5069027;28;20465;-58
2023/07/10 01:31:20;;;;;;;4.23;2.57;;;;;;;-143.84;40.46;45030.03;5069170;28;20477;-58
2023/07/10 01:33:50;;;;;;;6.77;2.87;;;;;;;-143.84;40.59;45024.31;5073210;28;20437;-58
2023/07/10 01:36:23;;;;;;;2.80;2.60;;;;;;;-143.84;40.68;44997.66;5072544;28;20438;-58
2023/07/10 01:38:56;;;;;;;4.90;3.00;;;;;;;-143.84;40.77;45007.19;5072842;28;20444;-58
2023/07/10 01:41:31;;;;;;;2.50;2.40;;;;;;;-143.84;40.85;45009.09;5072927;28;20438;-58
2023/07/10 01:43:58;;;;;;;4.07;2.83;;;;;;;-143.84;40.91;45010.97;5072639;28;20433;-58
2023/07/10 01:46:27;;;;;;;5.17;2.50;;;;;;;-143.84;40.75;45001.47;5073106;28;20476;-58
2023/07/10 01:48:58;;;;;;;2.90;2.70;;;;;;;-143.84;40.88;45016.69;5072550;28;20441;-58
2023/07/10 01:51:27;;;;;;;7.10;2.60;;;;;;;-143.84;40.92;45012.88;5072249;28;20477;-58
2023/07/10 01:53:54;;;;;;;3.83;2.80;;;;;;;-143.84;40.82;44986.22;5072487;28;20449;-58
2023/07/10 01:56:23;;;;;;;4.63;2.67;;;;;;;-143.84;40.94;45039.53;5072627;28;20449;-58
2023/07/10 01:58:50;;;;;;;3.07;2.80;;;;;;;-143.84;40.97;45007.19;5072673;28;20418;-58
2023/07/10 02:01:17;;;;;;;4.13;2.53;;;;;;;-143.84;40.92;44995.75;5072148;28;20430;-58
2023/07/10 02:03:44;;;;;;;3.23;2.93;;;;;;;-143.84;41.05;45022.41;5072055;28;20484;-58
2023/07/10 02:06:11;;;;;;;2.80;2.40;;;;;;;-143.84;40.81;45014.78;5072248;28;20442;-58
2023/07/10 02:08:40;;;;;;;3.23;2.60;;;;;;;-143.84;40.87;45003.38;5072035;28;20442;-58
2023/07/10 02:11:08;;;;;;;3.73;2.80;;;;;;;-143.84;40.74;45016.69;5071422;28;20477;-58
2023/07/10 02:13:35;;;;;;;8.63;2.50;;;;;;;-143.84;41.23;45005.28;5071257;28;20445;-58
2023/07/10 02:16:04;;;;;;;3.60;2.50;;;;;;;-143.84;41.03;45005.28;5071185;28;20442;-58
2023/07/10 02:18:31;;;;;;;3.23;2.13;;;;;;;-143.84;40.88;45018.59;5071555;28;20496;-58
2023/07/10 02:20:59;;;;;;;12.20;3.00;;;;;;;-143.84;41.08;45001.47;5071388;28;20940;-58
2023/07/10 02:23:26;;;;;;;2.83;2.53;;;;;;;-143.84;40.92;45018.59;5071016;28;20442;-58
2023/07/10 02:25:55;;;;;;;3.73;3.10;;;;;;;-143.84;40.97;45005.28;5071376;28;20451;-58
2023/07/10 02:28:22;;;;;;;2.77;2.57;;;;;;;-143.84;40.80;45009.09;5071106;28;20449;-58
2023/07/10 02:30:50;;;;;;;6.60;3.10;;;;;;;-143.84;40.78;45012.88;5071054;28;20449;-58
2023/07/10 02:33:18;;;;;;;15.40;2.90;;;;;;;-143.84;40.58;44999.56;5070970;28;20442;-58
2023/07/10 02:35:46;;;;;;;5.10;3.03;;;;;;;-143.84;40.65;45035.75;5071131;28;20951;-58
2023/07/10 02:38:13;;;;;;;2.73;2.50;;;;;;;-143.84;40.69;45016.69;5071230;28;20446;-58
2023/07/10 02:40:40;;;;;;;11.00;2.87;;;;;;;-143.84;40.79;45022.41;5071047;28;20830;-58
2023/07/10 02:43:09;;;;;;;6.80;2.50;;;;;;;-143.84;40.97;45003.38;5070162;28;20947;-58
2023/07/10 02:45:36;;;;;;;3.67;2.93;;;;;;;-143.84;41.05;45022.41;5070786;28;21083;-58
2023/07/10 02:48:04;;;;;;;11.77;3.20;;;;;;;-143.84;40.67;45018.59;5070721;28;20446;-58
2023/07/10 02:50:31;;;;;;;2.90;2.70;;;;;;;-143.84;40.71;45003.38;5070704;28;20437;-58
2023/07/10 02:52:58;;;;;;;3.37;2.70;;;;;;;-143.84;40.71;45003.38;5070789;28;20539;-58
2023/07/10 02:55:25;;;;;;;11.57;3.33;;;;;;;-143.84;40.76;45033.84;5070792;28;20491;-58
2023/07/10 02:57:52;;;;;;;9.23;2.70;;;;;;;-143.84;40.47;45026.22;5070556;28;20442;-58
2023/07/10 03:00:21;;;;;;;2.50;2.30;;;;;;;-143.84;40.57;44997.66;5070418;28;20437;-58
2023/07/10 03:02:48;;;;;;;2.80;2.60;;;;;;;-143.84;40.45;44984.31;5069977;28;20503;-58
2023/07/10 03:05:15;;;;;;;2.60;2.40;;;;;;;-143.84;40.68;45014.78;5070372;28;20434;-58
2023/07/10 03:07:42;;;;;;;3.20;2.70;;;;;;;-143.84;40.70;45016.69;5070439;28;20502;-58
2023/07/10 03:10:10;;;;;;;3.03;2.70;;;;;;;-143.84;40.60;44969.09;5070525;28;20500;-58
2023/07/10 03:12:37;;;;;;;3.17;2.87;;;;;;;-143.84;40.36;45005.28;5070229;28;21062;-58
2023/07/10 03:15:05;;;;;;;3.43;2.80;;;;;;;-143.84;40.39;45001.47;5070314;28;20495;-58
2023/07/10 03:17:34;;;;;;;3.87;3.00;;;;;;;-143.84;40.52;45018.59;5070190;28;20520;-58
2023/07/10 03:20:02;;;;;;;2.73;2.47;;;;;;;-143.84;40.54;45014.78;5070118;28;20475;-58
2023/07/10 03:22:29;;;;;;;7.70;3.00;;;;;;;-143.84;40.56;45007.19;5070074;28;20444;-58
2023/07/10 03:24:57;;;;;;;18.07;2.83;;;;;;;-143.84;40.35;45012.88;5069760;28;20483;-58
2023/07/10 03:27:24;;;;;;;6.83;2.57;;;;;;;-143.84;40.43;45016.69;5070387;28;20437;-58
2023/07/10 03:29:52;;;;;;;2.87;1.90;;;;;;;-143.84;40.20;44972.91;5070129;28;20458;-58
2023/07/10 03:32:19;;;;;;;8.40;2.40;;;;;;;-143.84;39.87;44984.31;5069664;28;20478;-58
2023/07/10 03:34:49;;;;;;;4.53;2.63;;;;;;;-143.84;39.80;45001.47;5069808;28;20434;-58
2023/07/10 03:37:16;;;;;;;3.30;2.67;;;;;;;-143.84;39.66;44990.03;5069815;28;20439;-58
2023/07/10 03:39:44;;;;;;;3.00;2.53;;;;;;;-143.84;38.97;44984.31;5069628;28;20445;-58
2023/07/10 03:42:11;;;;;;;4.50;2.73;;;;;;;-143.84;37.97;44957.66;5069808;28;20509;-59
2023/07/10 03:44:38;;;;;;;6.80;2.33;;;;;;;-143.84;36.85;44965.28;5069798;28;20447;-56
2023/07/10 03:47:06;;;;;;;3.53;2.40;;;;;;;-143.84;36.10;44978.63;5069438;28;20440;-56
2023/07/10 03:49:34;;;;;;;2.47;2.27;;;;;;;-143.84;35.02;44955.75;5069434;28;20498;-56
2023/07/10 03:52:04;;;;;;;4.80;1.97;;;;;;;-143.84;34.75;44948.16;5069339;28;20565;-56
2023/07/10 03:54:33;;;;;;;2.67;2.27;;;;;;;-143.84;34.35;44940.53;5069498;28;20437;-57
2023/07/10 03:57:00;;;;;;;13.50;2.33;;;;;;;-143.84;33.87;44923.41;5069338;28;20441;-56
2023/07/10 03:59:28;;;;;;;12.07;2.70;;;;;;;-143.84;33.78;44908.16;5069454;28;20438;-56
2023/07/10 04:01:55;;;;;;;5.90;2.63;;;;;;;-143.84;33.66;44913.88;5069240;28;20529;-57
2023/07/10 04:04:22;;;;;;;4.23;2.50;;;;;;;-143.84;33.32;44953.88;5069068;28;20546;-58
2023/07/10 04:06:49;;;;;;;3.30;2.20;;;;;;;-143.84;33.16;44944.34;5069384;28;20929;-58
2023/07/10 04:09:18;;;;;;;5.63;2.23;;;;;;;-143.84;33.23;44925.31;5069331;28;20443;-57
2023/07/10 04:11:45;;;;;;;2.57;2.37;;;;;;;-143.84;33.03;44904.34;5069199;28;21033;-57
2023/07/10 04:14:12;;;;;;;3.70;2.73;;;;;;;-143.84;32.64;44904.34;5069302;28;21008;-58
2023/07/10 04:16:40;;;;;;;9.30;2.37;;;;;;;-143.84;32.72;44915.78;5069521;28;20476;-58
2023/07/10 04:19:09;;;;;;;3.00;2.17;;;;;;;-143.84;32.47;44910.06;5069437;28;21016;-58
2023/07/10 04:21:36;;;;;;;2.77;2.20;;;;;;;-143.84;32.23;44877.69;5069335;28;20455;-58
2023/07/10 04:24:05;;;;;;;6.63;3.07;;;;;;;-143.84;32.41;44891.03;5069440;28;20456;-58
2023/07/10 04:26:35;;;;;;;5.37;2.60;;;;;;;-143.84;32.32;44885.31;5069316;28;21305;-58
2023/07/10 04:29:06;;;;;;;5.60;2.30;;;;;;;-143.84;32.15;44896.75;5069027;28;20547;-58
2023/07/10 04:31:34;;;;;;;9.93;2.30;;;;;;;-143.84;32.24;44902.44;5069474;28;20445;-58
2023/07/10 04:34:01;;;;;;;14.23;2.47;;;;;;;-143.84;32.08;44896.75;5069200;28;20438;-58
2023/07/10 04:36:28;;;;;;;3.33;2.47;;;;;;;-143.84;32.49;44898.66;5069097;28;20846;-58
2023/07/10 04:38:55;;;;;;;4.23;2.43;;;;;;;-143.84;31.71;44879.59;5069145;28;20471;-58
2023/07/10 04:41:24;;;;;;;4.07;2.13;;;;;;;-143.84;31.74;44864.38;5068925;28;20445;-58
2023/07/10 04:43:53;;;;;;;24.93;3.20;;;;;;;-143.84;31.85;44892.94;5068726;28;20503;-58
2023/07/10 04:46:21;;;;;;;6.50;2.70;;;;;;;-143.84;31.60;44892.94;5068780;28;20456;-58
2023/07/10 04:48:48;;;;;;;3.17;2.40;;;;;;;-143.84;32.08;44885.31;5068948;28;20512;-58
2023/07/10 04:51:17;;;;;;;3.70;2.43;;;;;;;-143.84;32.07;44883.41;5069253;28;20442;-58
2023/07/10 04:53:45;;;;;;;5.43;2.90;;;;;;;-143.84;32.12;44868.19;5068604;28;20858;-58
2023/07/10 04:56:14;;;;;;;9.13;2.70;;;;;;;-143.84;31.87;44873.88;5068933;28;20445;-58
2023/07/10 04:58:58;;;;;;;8.37;2.27;;;;;;;-143.84;32.20;44839.63;5068654;28;21036;-58
2023/07/10 05:01:27;;;;;;;7.70;2.90;;;;;;;-143.84;31.59;44866.28;5068492;28;20503;-57
2023/07/10 05:03:54;;;;;;;12.27;2.67;;;;;;;-143.84;31.87;44849.13;5068455;28;20481;-58
2023/07/10 05:06:22;;;;;;;15.07;3.57;;;;;;;-143.84;32.51;44849.13;5069298;28;21003;-58
2023/07/10 05:08:52;;;;;;;6.47;2.73;;;;;;;-143.84;32.33;44839.63;5072803;28;20491;-58
2023/07/10 05:11:19;;;;;;;3.00;2.20;;;;;;;-143.84;31.98;44845.31;5073212;28;20437;-58
2023/07/10 05:13:46;;;;;;;2.90;2.33;;;;;;;-143.84;32.04;44837.72;5072661;28;20477;-58
2023/07/10 05:16:15;;;;;;;3.97;2.63;;;;;;;-143.84;31.77;44843.44;5073019;28;21357;-58
2023/07/10 05:18:42;;;;;;;6.13;2.40;;;;;;;-143.84;32.40;44847.22;5072716;28;20444;-58
2023/07/10 05:21:09;;;;;;;19.30;3.80;;;;;;;-143.84;31.72;44854.84;5072549;28;20445;-58
2023/07/10 05:23:36;;;;;;;5.93;3.13;;;;;;;-143.84;31.71;44793.91;5072594;28;20848;-58
2023/07/10 05:26:06;;;;;;;8.37;3.17;;;;;;;-143.84;31.33;44839.63;5072442;28;20441;-58
2023/07/10 05:28:33;;;;;;;6.07;2.40;;;;;;;-143.84;31.05;44854.84;5072240;28;20939;-58
2023/07/10 05:31:02;;;;;;;2.70;2.50;;;;;;;-143.84;30.95;44820.56;5072495;28;20441;-58
2023/07/10 05:33:31;;;;;;;2.40;2.20;;;;;;;-143.84;30.89;44835.81;5072280;28;20864;-58
2023/07/10 05:36:00;;;;;;;16.57;2.67;;;;;;;-143.84;30.55;44841.53;5070984;28;20457;-58
2023/07/10 05:38:29;;;;;;;5.90;2.57;;;;;;;-143.84;30.91;44809.16;5071069;28;20858;-58
2023/07/10 05:40:56;;;;;;;7.73;3.20;;;;;;;-143.84;30.75;44843.44;5071601;28;20954;-58
2023/07/10 05:43:24;;;;;;;3.83;2.50;;;;;;;-143.84;30.95;44822.47;5071122;28;20499;-58
2023/07/10 05:45:54;;;;;;;2.97;2.40;;;;;;;-143.84;31.20;44843.44;5071264;28;20831;-58
2023/07/10 05:48:21;;;;;;;3.27;2.13;;;;;;;-143.84;31.63;44835.81;5071579;28;20448;-58
2023/07/10 05:50:51;;;;;;;1.97;1.87;;;;;;;-143.84;31.83;44837.72;5071862;28;20430;-58
2023/07/10 05:53:19;;;;;;;8.90;2.27;;;;;;;-143.84;31.28;44830.09;5072359;28;20490;-58
2023/07/10 05:55:47;;;;;;;2.60;2.37;;;;;;;-143.84;32.10;44830.09;5071964;28;20509;-58
2023/07/10 05:58:15;;;;;;;12.77;2.70;;;;;;;-143.84;31.29;44822.47;5071996;28;20939;-58
2023/07/10 06:00:43;;;;;;;3.57;2.20;;;;;;;-143.84;31.06;44832.00;5071706;28;20429;-58
2023/07/10 06:03:11;;;;;;;6.10;2.57;;;;;;;-143.84;30.64;44818.66;5071271;28;20550;-58
2023/07/10 06:05:38;;;;;;;2.73;2.10;;;;;;;-143.84;31.07;44835.81;5071564;28;20433;-58
2023/07/10 06:08:08;;;;;;;6.50;2.83;;;;;;;-143.84;30.51;44824.38;5071652;28;20927;-58
2023/07/10 06:10:36;;;;;;;2.53;2.33;;;;;;;-143.84;30.15;44805.34;5071375;28;20446;-58
2023/07/10 06:13:03;;;;;;;5.37;2.37;;;;;;;-143.84;30.65;44793.91;5071562;28;20484;-58
2023/07/10 06:15:31;;;;;;;9.40;3.40;;;;;;;-143.84;31.10;44811.06;5071580;28;20442;-58
2023/07/10 06:17:58;;;;;;;9.60;3.23;;;;;;;-143.84;30.76;44776.78;5070371;28;20947;-58
2023/07/10 06:20:26;;;;;;;5.00;3.90;;;;;;;-143.84;30.28;44801.53;5071479;28;20438;-58
2023/07/10 06:22:53;;;;;;;7.77;4.00;;;;;;;-143.84;31.19;44792.00;5071359;28;21201;-58
2023/07/10 06:25:21;;;;;;;12.53;3.97;;;;;;;-143.84;31.01;44820.56;5071038;28;20810;-58
2023/07/10 06:27:49;;;;;;;16.40;6.27;;;;;;;-143.84;30.77;44795.81;5071252;28;20449;-58
2023/07/10 06:30:16;;;;;;;11.30;4.93;;;;;;;-143.84;31.97;44803.44;5071793;28;20503;-58
2023/07/10 06:32:43;;;;;;;10.63;4.77;;;;;;;-143.84;31.66;44826.28;5071051;28;20477;-58
2023/07/10 06:35:13;;;;;;;12.53;4.80;;;;;;;-143.84;31.72;44839.63;5071167;28;20454;-58
2023/07/10 06:37:40;;;;;;;14.13;5.30;;;;;;;-143.84;32.23;44824.38;5071061;28;20478;-58
2023/07/10 06:40:10;;;;;;;18.87;4.70;;;;;;;-143.84;32.67;44839.63;5070892;28;20441;-58
2023/07/10 06:42:39;;;;;;;17.47;4.93;;;;;;;-143.84;32.04;44805.34;5070973;28;20512;-58
2023/07/10 06:45:07;;;;;;;6.63;4.10;;;;;;;-143.84;31.82;44809.16;5071436;28;21222;-58
2023/07/10 06:47:39;;;;;;;9.03;5.20;;;;;;;-143.84;31.86;44820.56;5071421;28;20449;-58
2023/07/10 06:50:07;;;;;;;13.87;5.00;;;;;;;-143.84;32.12;44824.38;5071037;28;20465;-58
2023/07/10 06:52:38;;;;;;;20.87;5.00;;;;;;;-143.84;32.49;44824.38;5070743;28;20503;-58
2023/07/10 06:55:06;;;;;;;8.43;4.07;;;;;;;-143.84;32.02;44832.00;5070627;28;20669;-58
2023/07/10 06:57:34;;;;;;;10.93;4.80;;;;;;;-143.84;32.57;44839.63;5070855;28;20449;-58
2023/07/10 07:00:03;;;;;;;16.63;5.30;;;;;;;-143.84;32.56;44851.03;5070626;28;20442;-58
2023/07/10 07:02:30;;;;;;;12.53;4.63;;;;;;;-143.84;32.64;44812.97;5070553;28;21037;-58
2023/07/10 07:04:57;;;;;;;7.20;4.60;;;;;;;-143.84;32.49;44849.13;5070503;28;21339;-58
2023/07/10 07:07:24;;;;;;;11.30;4.07;;;;;;;-143.84;32.66;44826.28;5070452;28;20437;-58
2023/07/10 07:09:51;;;;;;;5.33;3.63;;;;;;;-143.84;32.34;44805.34;5070610;28;20438;-58
2023/07/10 07:12:18;;;;;;;9.63;4.37;;;;;;;-143.84;32.33;44830.09;5069991;28;20445;-58
2023/07/10 07:14:46;;;;;;;3.80;3.50;;;;;;;-143.84;32.55;44788.22;5070424;28;20507;-58
2023/07/10 07:17:15;;;;;;;11.47;3.80;;;;;;;-143.84;32.13;44807.25;5070461;28;20530;-58
2023/07/10 07:19:43;;;;;;;10.27;3.83;;;;;;;-143.84;32.15;44839.63;5070495;28;20540;-58
2023/07/10 07:22:10;;;;;;;4.93;4.43;;;;;;;-143.84;32.09;44851.03;5070123;28;20441;-58
2023/07/10 07:24:37;;;;;;;8.87;3.87;;;;;;;-143.84;32.15;44797.72;5069957;28;20453;-58
2023/07/10 07:27:05;;;;;;;26.23;5.10;;;;;;;-143.84;31.91;44792.00;5070316;28;20788;-58
2023/07/10 07:29:32;;;;;;;13.57;3.90;;;;;;;-143.84;31.90;44816.78;5069947;28;20441;-58
2023/07/10 07:32:00;;;;;;;10.70;3.60;;;;;;;-143.84;31.49;44788.22;5070354;28;20453;-58
2023/07/10 07:34:28;;;;;;;21.23;3.30;;;;;;;-143.84;31.56;44793.91;5070134;28;21226;-58
2023/07/10 07:36:56;;;;;;;10.17;4.67;;;;;;;-143.84;31.80;44805.34;5070220;28;20449;-58
2023/07/10 07:39:27;;;;;;;20.73;4.17;;;;;;;-143.84;31.78;44790.13;5070041;28;20794;-58
2023/07/10 07:41:55;;;;;;;8.73;4.13;;;;;;;-143.84;31.59;44801.53;5069924;28;20942;-58
2023/07/10 07:44:22;;;;;;;6.60;3.67;;;;;;;-143.84;32.00;44822.47;5069674;28;20430;-58
2023/07/10 07:46:49;;;;;;;8.90;4.03;;;;;;;-143.84;32.60;44814.88;5069681;28;20445;-58
2023/07/10 07:49:16;;;;;;;11.77;3.83;;;;;;;-143.84;32.17;44793.91;5069606;28;20499;-58
2023/07/10 07:51:45;;;;;;;17.90;3.80;;;;;;;-143.84;32.35;44807.25;5069547;28;20446;-58
2023/07/10 07:54:14;;;;;;;10.50;3.80;;;;;;;-143.84;31.58;44828.19;5069852;28;20473;-58
2023/07/10 07:56:41;;;;;;;7.90;4.37;;;;;;;-143.84;31.83;44774.88;5069648;28;20499;-58
2023/07/10 07:59:09;;;;;;;10.60;4.03;;;;;;;-143.84;31.97;44772.97;5069504;28;20955;-58
2023/07/10 08:01:36;;;;;;;12.20;3.57;;;;;;;-143.84;31.20;44820.56;5069480;28;20445;-58
2023/07/10 08:04:04;;;;;;;7.00;3.63;;;;;;;-143.84;31.39;44803.44;5069352;28;21072;-58
2023/07/10 08:06:32;;;;;;;15.60;4.77;;;;;;;-143.84;31.55;44784.41;5069480;28;20503;-58
2023/07/10 08:09:02;;;;;;;12.30;3.80;;;;;;;-143.84;31.22;44799.63;5069640;28;20879;-58
2023/07/10 08:11:30;;;;;;;7.57;3.40;;;;;;;-143.84;30.67;44818.66;5069480;28;20525;-58
2023/07/10 08:13:57;;;;;;;10.17;3.37;;;;;;;-143.84;31.34;44828.19;5082121;28;20483;-58
2023/07/10 08:16:25;;;;;;;9.93;3.23;;;;;;;-143.84;31.29;44809.16;5089433;28;20792;-58
2023/07/10 08:18:52;;;;;;;7.23;2.80;;;;;;;-143.84;30.71;44799.63;5089884;28;20440;-58
2023/07/10 08:21:20;;;;;;;7.10;3.73;;;;;;;-143.84;30.40;44807.25;5089253;28;21126;-58
2023/07/10 08:23:47;;;;;;;11.17;3.00;;;;;;;-143.84;30.07;44769.16;5089374;28;20539;-58
2023/07/10 08:26:16;;;;;;;6.70;3.90;;;;;;;-143.84;30.36;44780.59;5089064;28;20518;-58
2023/07/10 08:28:43;;;;;;;6.77;3.60;;;;;;;-143.84;29.85;44778.69;5089648;28;20440;-58
2023/07/10 08:31:10;;;;;;;7.43;3.40;;;;;;;-143.84;29.86;44797.72;5084513;28;20503;-58
2023/07/10 08:33:38;;;;;;;5.57;3.13;;;;;;;-143.84;29.35;44771.06;5069121;28;20472;-58
2023/07/10 08:36:07;;;;;;;7.27;3.30;;;;;;;-143.84;29.04;44755.84;5069303;28;20433;-58
2023/07/10 08:38:36;;;;;;;3.23;2.90;;;;;;;-143.84;29.53;44767.25;5069106;28;20451;-57
2023/07/10 08:41:21;;;;;;;6.47;3.40;;;;;;;-143.84;29.12;44752.03;5068301;28;20986;-57
2023/07/10 08:43:49;;;;;;;3.97;3.57;;;;;;;-143.84;29.06;44757.75;5068949;28;20453;-57
2023/07/10 08:46:20;;;;;;;13.30;3.23;;;;;;;-143.84;28.70;44746.31;5068625;28;20449;-57
2023/07/10 08:48:53;;;;;;;3.40;3.10;;;;;;;-143.84;28.87;44761.56;5069091;28;20437;-57
2023/07/10 08:51:45;;;;;;;6.70;2.87;;;;;;;-143.84;28.82;44752.03;5068702;28;20437;-57
2023/07/10 08:54:16;;;;;;;4.63;3.43;;;;;;;-143.84;28.39;44761.56;5065928;28;20489;-57
2023/07/10 08:56:51;;;;;;;4.60;3.13;;;;;;;-143.84;28.47;44782.50;5069006;28;20440;-57
2023/07/10 08:59:49;;;;;;;6.00;3.00;;;;;;;-143.84;28.53;44780.59;5068878;28;20510;-57
2023/07/10 09:02:22;;;;;;;5.57;3.20;;;;;;;-143.84;28.73;44811.06;5034597;28;20445;-57
2023/07/10 09:04:51;;;;;;;5.97;3.20;;;;;;;-143.84;28.93;44788.22;5068652;28;20587;-57
2023/07/10 09:07:19;;;;;;;11.47;3.73;;;;;;;-143.84;29.58;44774.88;5068774;28;20871;-56
2023/07/10 09:09:54;;;;;;;3.53;3.23;;;;;;;-143.84;30.02;44776.78;5068661;28;20453;-57
2023/07/10 09:12:28;;;;;;;8.10;3.03;;;;;;;-143.84;30.33;44778.69;5068741;28;20499;-57
2023/07/10 09:14:59;;;;;;;4.63;3.83;;;;;;;-143.84;29.42;44799.63;5068840;28;21057;-57
2023/07/10 09:17:34;;;;;;;8.70;3.30;;;;;;;-143.84;28.18;44792.00;5068692;28;20679;-57
2023/07/10 09:20:06;;;;;;;8.67;3.70;;;;;;;-143.84;29.35;44803.44;5068641;28;20510;-57
2023/07/10 09:22:49;;;;;;;7.73;3.30;;;;;;;-143.84;27.75;44759.66;5068434;28;20870;-57
2023/07/10 09:25:16;;;;;;;3.80;3.60;;;;;;;-143.84;28.66;44771.06;5068659;28;20492;-57
2023/07/10 09:27:46;;;;;;;3.17;2.80;;;;;;;-143.84;28.61;44729.19;5068647;28;20450;-57
2023/07/10 09:30:27;;;;;;;3.50;3.30;;;;;;;-143.84;28.36;44797.72;5068674;28;20503;-57
2023/07/10 09:33:01;;;;;;;4.23;3.17;;;;;;;-143.84;28.16;44748.22;5068816;28;20869;-56
2023/07/10 09:35:28;;;;;;;9.40;3.50;;;;;;;-143.84;28.39;44788.22;5068166;28;20488;-57
2023/07/10 09:37:56;;;;;;;15.23;3.67;;;;;;;-143.84;27.20;44774.88;5068385;28;20532;-57
2023/07/10 09:50:33;;;;;;;7.90;4.00;;;;;;;-143.84;28.63;44782.50;5068421;28;20807;-57
2023/07/10 09:53:00;;;;;;;3.80;3.40;;;;;;;-143.84;28.16;44809.16;5069619;28;20902;-57
2023/07/10 09:55:27;;;;;;;3.57;3.27;;;;;;;-143.84;28.59;44820.56;5071951;28;21030;-57
2023/07/10 09:57:58;;;;;;;4.20;3.73;;;;;;;-143.84;28.21;44799.63;5071826;28;20449;-57
2023/07/10 10:00:26;;;;;;;7.80;3.43;;;;;;;-143.84;28.54;44814.88;5071889;28;20441;-57
2023/07/10 10:02:58;;;;;;;7.50;3.50;;;;;;;-143.84;28.70;44784.41;5071430;28;20449;-57
2023/07/10 10:05:25;;;;;;;3.87;3.57;;;;;;;-143.84;29.00;44797.72;5071179;28;21134;-57
2023/07/10 10:08:41;;;;;;;7.00;3.87;;;;;;;-143.84;30.16;44805.34;5070920;28;20442;-57
2023/07/10 10:11:12;;;;;;;4.80;3.10;;;;;;;-143.84;30.26;44780.59;5070841;28;20468;-57
2023/07/10 10:13:42;;;;;;;4.50;3.60;;;;;;;-143.84;30.08;44811.06;5071035;28;20933;-57
2023/07/10 10:16:19;;;;;;;3.47;3.27;;;;;;;-143.84;30.44;44797.72;5071006;28;21156;-57
2023/07/10 10:18:52;;;;;;;6.67;3.20;;;;;;;-143.84;30.57;44769.16;5071166;28;20948;-57
2023/07/10 10:21:21;;;;;;;5.00;3.13;;;;;;;-143.84;29.01;44763.47;5071238;28;20511;-57
2023/07/10 10:23:52;;;;;;;5.83;3.33;;;;;;;-143.84;29.99;44763.47;5077814;28;20452;-57
2023/07/10 10:26:34;;;;;;;5.93;3.53;;;;;;;-143.84;29.33;44742.50;5091660;28;20518;-57
2023/07/10 10:29:13;;;;;;;5.47;3.10;;;;;;;-143.84;28.87;44755.84;5091443;28;20444;-57
2023/07/10 10:31:42;;;;;;;13.93;3.57;;;;;;;-143.84;29.10;44759.66;5091371;28;20436;-57
2023/07/10 10:34:21;;;;;;;3.40;3.10;;;;;;;-143.84;29.63;44790.13;5091703;28;20491;-58
2023/07/10 10:37:04;;;;;;;4.87;2.90;;;;;;;-143.84;29.19;44729.19;5091495;28;20444;-57
2023/07/10 10:39:38;;;;;;;4.60;3.77;;;;;;;-143.84;30.47;44761.56;5091214;28;21196;-57
2023/07/10 10:42:14;;;;;;;3.20;2.83;;;;;;;-143.84;29.17;44786.31;5091302;28;20440;-57
2023/07/10 10:44:49;;;;;;;4.90;3.00;;;;;;;-143.84;29.28;44731.09;5091420;28;20494;-57
2023/07/10 10:47:36;;;;;;;3.37;3.10;;;;;;;-143.84;29.14;44744.41;5090903;28;20437;-57
2023/07/10 10:50:19;;;;;;;3.83;2.60;;;;;;;-143.84;29.43;44784.41;5091014;28;20445;-57
2023/07/10 10:53:10;;;;;;;3.07;2.83;;;;;;;-143.84;29.53;44742.50;5091038;28;20440;-57
2023/07/10 10:55:46;;;;;;;2.40;2.30;;;;;;;-143.84;27.97;44759.66;5091187;28;20488;-57
2023/07/10 10:58:26;;;;;;;4.30;3.10;;;;;;;-143.84;29.84;44734.91;5091067;28;20486;-57
2023/07/10 11:01:19;;;;;;;3.33;3.03;;;;;;;-143.84;28.84;44734.91;5090656;28;20834;-57
2023/07/10 11:03:54;;;;;;;3.47;3.17;;;;;;;-143.84;28.63;44772.97;5090520;28;20529;-57
2023/07/10 11:06:46;;;;;;;6.00;2.53;;;;;;;-143.84;28.35;44782.50;5090684;28;20467;-57
2023/07/10 11:09:18;;;;;;;3.17;2.87;;;;;;;-143.84;28.03;44759.66;5090568;28;20854;-57
2023/07/10 11:11:46;;;;;;;3.07;2.87;;;;;;;-143.84;28.06;44784.41;5090928;28;20436;-57
2023/07/10 11:14:14;;;;;;;3.23;3.00;;;;;;;-143.84;28.13;44801.53;5091046;28;20472;-57
2023/07/10 11:16:42;;;;;;;11.13;3.50;;;;;;;-143.84;28.71;44786.31;5090616;28;20841;-57
2023/07/10 11:19:17;;;;;;;3.40;2.70;;;;;;;-143.84;28.33;44780.59;5074658;28;20442;-57
2023/07/10 11:21:45;;;;;;;3.20;2.90;;;;;;;-143.84;28.91;44788.22;5069872;28;20490;-57
2023/07/10 11:24:18;;;;;;;4.67;3.60;;;;;;;-143.84;28.68;44765.34;5069914;28;20438;-57
2023/07/10 11:26:51;;;;;;;4.60;3.10;;;;;;;-143.84;28.40;44767.25;5069706;28;20445;-57
2023/07/10 11:29:30;;;;;;;5.03;3.20;;;;;;;-143.84;29.07;44761.56;5070008;28;21141;-57
2023/07/10 11:32:00;;;;;;;5.63;3.20;;;;;;;-143.84;29.52;44752.03;5069992;28;20495;-57
2023/07/10 11:34:56;;;;;;;3.57;3.33;;;;;;;-143.84;31.63;44780.59;5069815;28;20477;-57
2023/07/10 11:37:40;;;;;;;7.60;3.27;;;;;;;-143.84;33.55;44818.66;5034537;28;20454;-57
2023/07/10 11:40:46;;;;;;;7.03;4.20;;;;;;;-143.84;34.61;44792.00;5069787;28;20446;-57